sensor_id;sensor_type;location;lat;lon;timestamp;P1;durP1;ratioP1;P2;durP2;ratioP2
18023;SDS011;9137;50.960;3.118;2022-09-01T00:01:28;5.65;;;2.67;;
18023;SDS011;9137;50.960;3.118;2022-09-01T00:03:56;6.53;;;2.92;;
18023;SDS011;9137;50.960;3.118;2022-09-01T00:06:28;6.25;;;3.30;;
18023;SDS011;9137;50.960;3.118;2022-09-01T00:09:00;5.13;;;3.10;;
18023;SDS011;9137;50.960;3.118;2022-09-01T00:11:29;5.63;;;3.33;;
18023;SDS011;9137;50.960;3.118;2022-09-01T00:13:57;4.75;;;2.85;;
18023;SDS011;9137;50.960;3.118;2022-09-01T00:16:26;6.85;;;2.90;;
18023;SDS011;9137;50.960;3.118;2022-09-01T00:18:53;5.30;;;2.45;;
18023;SDS011;9137;50.960;3.118;2022-09-01T00:21:22;5.30;;;2.42;;
18023;SDS011;9137;50.960;3.118;2022-09-01T00:23:52;3.00;;;1.90;;
18023;SDS011;9137;50.960;3.118;2022-09-01T00:26:19;3.95;;;1.77;;
18023;SDS011;9137;50.960;3.118;2022-09-01T00:28:46;2.20;;;1.45;;
18023;SDS011;9137;50.960;3.118;2022-09-01T00:31:14;3.28;;;1.65;;
18023;SDS011;9137;50.960;3.118;2022-09-01T00:33:44;2.25;;;1.70;;
18023;SDS011;9137;50.960;3.118;2022-09-01T00:36:10;2.28;;;1.75;;
18023;SDS011;9137;50.960;3.118;2022-09-01T00:38:38;2.45;;;1.50;;
18023;SDS011;9137;50.960;3.118;2022-09-01T00:41:06;2.15;;;1.70;;
18023;SDS011;9137;50.960;3.118;2022-09-01T00:43:35;2.10;;;1.55;;
18023;SDS011;9137;50.960;3.118;2022-09-01T00:46:10;1.73;;;1.63;;
18023;SDS011;9137;50.960;3.118;2022-09-01T00:48:41;2.93;;;1.67;;
18023;SDS011;9137;50.960;3.118;2022-09-01T00:51:08;2.25;;;1.60;;
18023;SDS011;9137;50.960;3.118;2022-09-01T00:53:37;2.42;;;1.40;;
18023;SDS011;9137;50.960;3.118;2022-09-01T00:56:09;1.65;;;1.52;;
18023;SDS011;9137;50.960;3.118;2022-09-01T00:58:37;2.97;;;1.58;;
18023;SDS011;9137;50.960;3.118;2022-09-01T01:01:04;2.97;;;1.58;;
18023;SDS011;9137;50.960;3.118;2022-09-01T01:03:32;3.75;;;1.50;;
18023;SDS011;9137;50.960;3.118;2022-09-01T01:06:01;2.37;;;1.60;;
18023;SDS011;9137;50.960;3.118;2022-09-01T01:08:33;2.97;;;1.42;;
18023;SDS011;9137;50.960;3.118;2022-09-01T01:11:03;2.45;;;1.77;;
18023;SDS011;9137;50.960;3.118;2022-09-01T01:13:34;2.35;;;1.42;;
18023;SDS011;9137;50.960;3.118;2022-09-01T01:16:13;2.35;;;1.30;;
18023;SDS011;9137;50.960;3.118;2022-09-01T01:18:43;1.65;;;1.48;;
18023;SDS011;9137;50.960;3.118;2022-09-01T01:21:16;3.58;;;2.17;;
18023;SDS011;9137;50.960;3.118;2022-09-01T01:24:05;1.65;;;1.50;;
18023;SDS011;9137;50.960;3.118;2022-09-01T01:26:43;3.28;;;1.73;;
18023;SDS011;9137;50.960;3.118;2022-09-01T01:29:11;2.27;;;1.53;;
18023;SDS011;9137;50.960;3.118;2022-09-01T01:31:38;2.38;;;1.77;;
18023;SDS011;9137;50.960;3.118;2022-09-01T01:34:05;4.50;;;2.00;;
18023;SDS011;9137;50.960;3.118;2022-09-01T01:36:36;4.50;;;2.05;;
18023;SDS011;9137;50.960;3.118;2022-09-01T01:39:07;4.47;;;2.00;;
18023;SDS011;9137;50.960;3.118;2022-09-01T01:41:37;3.05;;;1.90;;
18023;SDS011;9137;50.960;3.118;2022-09-01T01:44:07;3.70;;;1.80;;
18023;SDS011;9137;50.960;3.118;2022-09-01T01:46:37;2.65;;;1.60;;
18023;SDS011;9137;50.960;3.118;2022-09-01T01:49:07;3.90;;;1.90;;
18023;SDS011;9137;50.960;3.118;2022-09-01T01:51:36;4.65;;;2.08;;
18023;SDS011;9137;50.960;3.118;2022-09-01T01:54:05;4.50;;;1.95;;
18023;SDS011;9137;50.960;3.118;2022-09-01T01:56:34;2.78;;;1.73;;
18023;SDS011;9137;50.960;3.118;2022-09-01T01:59:05;3.42;;;1.80;;
18023;SDS011;9137;50.960;3.118;2022-09-01T02:01:37;2.80;;;1.83;;
18023;SDS011;9137;50.960;3.118;2022-09-01T02:04:07;3.35;;;2.03;;
18023;SDS011;9137;50.960;3.118;2022-09-01T02:06:36;3.65;;;1.95;;
18023;SDS011;9137;50.960;3.118;2022-09-01T02:09:05;3.13;;;1.60;;
18023;SDS011;9137;50.960;3.118;2022-09-01T02:11:33;2.10;;;1.70;;
18023;SDS011;9137;50.960;3.118;2022-09-01T02:14:02;3.92;;;2.00;;
18023;SDS011;9137;50.960;3.118;2022-09-01T02:16:32;3.13;;;2.13;;
18023;SDS011;9137;50.960;3.118;2022-09-01T02:19:00;5.22;;;2.08;;
18023;SDS011;9137;50.960;3.118;2022-09-01T02:21:32;4.20;;;2.40;;
18023;SDS011;9137;50.960;3.118;2022-09-01T02:24:00;5.20;;;2.78;;
18023;SDS011;9137;50.960;3.118;2022-09-01T02:26:33;4.50;;;2.27;;
18023;SDS011;9137;50.960;3.118;2022-09-01T02:29:05;2.90;;;2.10;;
18023;SDS011;9137;50.960;3.118;2022-09-01T02:31:36;5.22;;;1.90;;
18023;SDS011;9137;50.960;3.118;2022-09-01T02:34:06;2.42;;;1.75;;
18023;SDS011;9137;50.960;3.118;2022-09-01T02:36:34;4.07;;;2.20;;
18023;SDS011;9137;50.960;3.118;2022-09-01T02:39:08;3.33;;;1.75;;
18023;SDS011;9137;50.960;3.118;2022-09-01T02:41:35;4.15;;;1.88;;
18023;SDS011;9137;50.960;3.118;2022-09-01T02:44:03;4.63;;;1.87;;
18023;SDS011;9137;50.960;3.118;2022-09-01T02:46:37;4.53;;;1.90;;
18023;SDS011;9137;50.960;3.118;2022-09-01T02:49:05;3.33;;;1.80;;
18023;SDS011;9137;50.960;3.118;2022-09-01T02:51:42;3.70;;;1.80;;
18023;SDS011;9137;50.960;3.118;2022-09-01T02:54:11;3.80;;;2.00;;
18023;SDS011;9137;50.960;3.118;2022-09-01T02:56:43;5.35;;;2.35;;
18023;SDS011;9137;50.960;3.118;2022-09-01T02:59:12;4.38;;;2.25;;
18023;SDS011;9137;50.960;3.118;2022-09-01T03:01:40;6.43;;;2.58;;
18023;SDS011;9137;50.960;3.118;2022-09-01T03:04:10;5.82;;;2.78;;
18023;SDS011;9137;50.960;3.118;2022-09-01T03:06:39;6.90;;;3.00;;
18023;SDS011;9137;50.960;3.118;2022-09-01T03:09:07;8.35;;;3.20;;
18023;SDS011;9137;50.960;3.118;2022-09-01T03:11:36;5.50;;;2.58;;
18023;SDS011;9137;50.960;3.118;2022-09-01T03:14:05;5.88;;;2.80;;
18023;SDS011;9137;50.960;3.118;2022-09-01T03:16:32;8.95;;;3.75;;
18023;SDS011;9137;50.960;3.118;2022-09-01T03:19:01;7.47;;;3.92;;
18023;SDS011;9137;50.960;3.118;2022-09-01T03:21:31;11.32;;;4.28;;
18023;SDS011;9137;50.960;3.118;2022-09-01T03:23:58;9.90;;;3.87;;
18023;SDS011;9137;50.960;3.118;2022-09-01T03:26:27;10.23;;;3.70;;
18023;SDS011;9137;50.960;3.118;2022-09-01T03:28:55;9.13;;;3.78;;
18023;SDS011;9137;50.960;3.118;2022-09-01T03:31:23;8.73;;;4.38;;
18023;SDS011;9137;50.960;3.118;2022-09-01T03:33:52;10.13;;;3.47;;
18023;SDS011;9137;50.960;3.118;2022-09-01T03:36:22;9.63;;;3.90;;
18023;SDS011;9137;50.960;3.118;2022-09-01T03:38:50;8.23;;;3.50;;
18023;SDS011;9137;50.960;3.118;2022-09-01T03:41:19;7.95;;;3.80;;
18023;SDS011;9137;50.960;3.118;2022-09-01T03:43:49;10.02;;;3.47;;
18023;SDS011;9137;50.960;3.118;2022-09-01T03:46:19;7.63;;;3.70;;
18023;SDS011;9137;50.960;3.118;2022-09-01T03:48:49;9.35;;;3.53;;
18023;SDS011;9137;50.960;3.118;2022-09-01T03:51:20;6.27;;;3.00;;
18023;SDS011;9137;50.960;3.118;2022-09-01T03:53:49;8.25;;;3.50;;
18023;SDS011;9137;50.960;3.118;2022-09-01T03:56:21;6.90;;;2.90;;
18023;SDS011;9137;50.960;3.118;2022-09-01T03:58:51;6.35;;;3.03;;
18023;SDS011;9137;50.960;3.118;2022-09-01T04:01:19;6.38;;;3.10;;
18023;SDS011;9137;50.960;3.118;2022-09-01T04:03:48;4.18;;;2.70;;
18023;SDS011;9137;50.960;3.118;2022-09-01T04:06:17;5.20;;;2.63;;
18023;SDS011;9137;50.960;3.118;2022-09-01T04:08:49;5.70;;;3.00;;
18023;SDS011;9137;50.960;3.118;2022-09-01T04:11:21;6.70;;;2.78;;
18023;SDS011;9137;50.960;3.118;2022-09-01T04:13:50;9.05;;;3.78;;
18023;SDS011;9137;50.960;3.118;2022-09-01T04:16:18;10.32;;;3.33;;
18023;SDS011;9137;50.960;3.118;2022-09-01T04:19:04;8.03;;;3.50;;
18023;SDS011;9137;50.960;3.118;2022-09-01T04:21:40;8.90;;;3.88;;
18023;SDS011;9137;50.960;3.118;2022-09-01T04:24:09;7.78;;;3.30;;
18023;SDS011;9137;50.960;3.118;2022-09-01T04:26:38;4.88;;;2.97;;
18023;SDS011;9137;50.960;3.118;2022-09-01T04:29:06;7.72;;;3.10;;
18023;SDS011;9137;50.960;3.118;2022-09-01T04:31:35;7.60;;;3.50;;
18023;SDS011;9137;50.960;3.118;2022-09-01T04:34:05;4.32;;;2.55;;
18023;SDS011;9137;50.960;3.118;2022-09-01T04:36:38;5.55;;;2.47;;
18023;SDS011;9137;50.960;3.118;2022-09-01T04:39:06;4.95;;;2.38;;
18023;SDS011;9137;50.960;3.118;2022-09-01T04:41:36;4.97;;;2.30;;
18023;SDS011;9137;50.960;3.118;2022-09-01T04:44:06;4.50;;;2.17;;
18023;SDS011;9137;50.960;3.118;2022-09-01T04:46:34;4.28;;;1.98;;
18023;SDS011;9137;50.960;3.118;2022-09-01T04:49:05;2.95;;;1.83;;
18023;SDS011;9137;50.960;3.118;2022-09-01T04:51:36;2.50;;;1.80;;
18023;SDS011;9137;50.960;3.118;2022-09-01T04:54:07;6.55;;;1.88;;
18023;SDS011;9137;50.960;3.118;2022-09-01T04:56:39;1.70;;;1.55;;
18023;SDS011;9137;50.960;3.118;2022-09-01T04:59:08;3.47;;;1.60;;
18023;SDS011;9137;50.960;3.118;2022-09-01T05:01:38;1.98;;;1.50;;
18023;SDS011;9137;50.960;3.118;2022-09-01T05:04:09;3.38;;;1.85;;
18023;SDS011;9137;50.960;3.118;2022-09-01T05:06:38;2.60;;;1.70;;
18023;SDS011;9137;50.960;3.118;2022-09-01T05:09:08;1.90;;;1.65;;
18023;SDS011;9137;50.960;3.118;2022-09-01T05:11:37;3.65;;;2.00;;
18023;SDS011;9137;50.960;3.118;2022-09-01T05:14:09;2.83;;;1.73;;
18023;SDS011;9137;50.960;3.118;2022-09-01T05:16:46;2.95;;;1.80;;
18023;SDS011;9137;50.960;3.118;2022-09-01T05:19:13;1.90;;;1.70;;
18023;SDS011;9137;50.960;3.118;2022-09-01T05:21:42;5.43;;;1.85;;
18023;SDS011;9137;50.960;3.118;2022-09-01T05:24:10;2.20;;;2.00;;
18023;SDS011;9137;50.960;3.118;2022-09-01T05:26:41;1.98;;;1.80;;
18023;SDS011;9137;50.960;3.118;2022-09-01T05:29:11;3.45;;;1.90;;
18023;SDS011;9137;50.960;3.118;2022-09-01T05:31:41;2.83;;;2.10;;
18023;SDS011;9137;50.960;3.118;2022-09-01T05:34:09;2.50;;;1.85;;
18023;SDS011;9137;50.960;3.118;2022-09-01T05:36:40;2.22;;;1.75;;
18023;SDS011;9137;50.960;3.118;2022-09-01T05:39:08;4.50;;;2.35;;
18023;SDS011;9137;50.960;3.118;2022-09-01T05:41:36;5.57;;;1.73;;
18023;SDS011;9137;50.960;3.118;2022-09-01T05:44:06;4.13;;;2.47;;
18023;SDS011;9137;50.960;3.118;2022-09-01T05:46:35;3.43;;;2.20;;
18023;SDS011;9137;50.960;3.118;2022-09-01T05:49:03;7.30;;;2.70;;
18023;SDS011;9137;50.960;3.118;2022-09-01T05:51:40;3.53;;;2.37;;
18023;SDS011;9137;50.960;3.118;2022-09-01T05:54:08;4.93;;;2.33;;
18023;SDS011;9137;50.960;3.118;2022-09-01T05:56:36;2.92;;;2.40;;
18023;SDS011;9137;50.960;3.118;2022-09-01T05:59:08;4.60;;;2.72;;
18023;SDS011;9137;50.960;3.118;2022-09-01T06:01:36;10.25;;;4.60;;
18023;SDS011;9137;50.960;3.118;2022-09-01T06:04:05;11.45;;;5.45;;
18023;SDS011;9137;50.960;3.118;2022-09-01T06:06:35;11.50;;;5.07;;
18023;SDS011;9137;50.960;3.118;2022-09-01T06:09:09;9.45;;;5.00;;
18023;SDS011;9137;50.960;3.118;2022-09-01T06:11:36;8.95;;;4.35;;
18023;SDS011;9137;50.960;3.118;2022-09-01T06:14:03;8.35;;;4.32;;
18023;SDS011;9137;50.960;3.118;2022-09-01T06:16:32;8.30;;;4.07;;
18023;SDS011;9137;50.960;3.118;2022-09-01T06:19:00;7.20;;;3.50;;
18023;SDS011;9137;50.960;3.118;2022-09-01T06:21:34;9.77;;;4.20;;
18023;SDS011;9137;50.960;3.118;2022-09-01T06:24:01;6.57;;;3.40;;
18023;SDS011;9137;50.960;3.118;2022-09-01T06:26:31;7.70;;;3.27;;
18023;SDS011;9137;50.960;3.118;2022-09-01T06:29:02;3.95;;;2.83;;
18023;SDS011;9137;50.960;3.118;2022-09-01T06:31:32;5.00;;;3.07;;
18023;SDS011;9137;50.960;3.118;2022-09-01T06:34:03;3.23;;;2.93;;
18023;SDS011;9137;50.960;3.118;2022-09-01T06:36:32;6.10;;;3.22;;
18023;SDS011;9137;50.960;3.118;2022-09-01T06:39:01;3.30;;;3.00;;
18023;SDS011;9137;50.960;3.118;2022-09-01T06:41:29;6.05;;;2.78;;
18023;SDS011;9137;50.960;3.118;2022-09-01T06:43:56;6.13;;;3.13;;
18023;SDS011;9137;50.960;3.118;2022-09-01T06:46:26;6.57;;;2.97;;
18023;SDS011;9137;50.960;3.118;2022-09-01T06:48:57;3.53;;;2.78;;
18023;SDS011;9137;50.960;3.118;2022-09-01T06:51:24;3.70;;;3.00;;
18023;SDS011;9137;50.960;3.118;2022-09-01T06:53:53;4.13;;;2.80;;
18023;SDS011;9137;50.960;3.118;2022-09-01T06:56:24;4.17;;;3.27;;
18023;SDS011;9137;50.960;3.118;2022-09-01T06:58:54;4.95;;;3.17;;
18023;SDS011;9137;50.960;3.118;2022-09-01T07:01:21;5.00;;;3.20;;
18023;SDS011;9137;50.960;3.118;2022-09-01T07:03:51;5.72;;;3.40;;
18023;SDS011;9137;50.960;3.118;2022-09-01T07:06:22;4.68;;;3.47;;
18023;SDS011;9137;50.960;3.118;2022-09-01T07:08:51;4.75;;;3.70;;
18023;SDS011;9137;50.960;3.118;2022-09-01T07:11:20;12.40;;;6.47;;
18023;SDS011;9137;50.960;3.118;2022-09-01T07:13:49;4.88;;;3.80;;
18023;SDS011;9137;50.960;3.118;2022-09-01T07:16:19;7.05;;;3.88;;
18023;SDS011;9137;50.960;3.118;2022-09-01T07:18:48;5.63;;;3.58;;
18023;SDS011;9137;50.960;3.118;2022-09-01T07:21:20;6.13;;;3.88;;
18023;SDS011;9137;50.960;3.118;2022-09-01T07:23:52;5.82;;;4.00;;
18023;SDS011;9137;50.960;3.118;2022-09-01T07:26:19;6.32;;;3.85;;
18023;SDS011;9137;50.960;3.118;2022-09-01T07:28:47;5.35;;;4.05;;
18023;SDS011;9137;50.960;3.118;2022-09-01T07:31:16;8.02;;;4.18;;
18023;SDS011;9137;50.960;3.118;2022-09-01T07:33:45;4.72;;;3.83;;
18023;SDS011;9137;50.960;3.118;2022-09-01T07:36:13;5.57;;;3.97;;
18023;SDS011;9137;50.960;3.118;2022-09-01T07:38:42;4.40;;;3.65;;
18023;SDS011;9137;50.960;3.118;2022-09-01T07:41:09;6.60;;;4.45;;
18023;SDS011;9137;50.960;3.118;2022-09-01T07:43:37;4.63;;;3.80;;
18023;SDS011;9137;50.960;3.118;2022-09-01T07:46:06;5.05;;;3.97;;
18023;SDS011;9137;50.960;3.118;2022-09-01T07:48:33;7.90;;;4.40;;
18023;SDS011;9137;50.960;3.118;2022-09-01T07:51:01;5.57;;;4.30;;
18023;SDS011;9137;50.960;3.118;2022-09-01T07:53:29;5.07;;;4.03;;
18023;SDS011;9137;50.960;3.118;2022-09-01T07:56:03;7.83;;;4.50;;
18023;SDS011;9137;50.960;3.118;2022-09-01T07:58:36;7.15;;;4.30;;
18023;SDS011;9137;50.960;3.118;2022-09-01T08:01:06;7.15;;;5.13;;
18023;SDS011;9137;50.960;3.118;2022-09-01T08:03:34;6.18;;;4.15;;
18023;SDS011;9137;50.960;3.118;2022-09-01T08:06:01;9.52;;;4.60;;
18023;SDS011;9137;50.960;3.118;2022-09-01T08:08:30;6.60;;;4.75;;
18023;SDS011;9137;50.960;3.118;2022-09-01T08:10:59;6.10;;;4.20;;
18023;SDS011;9137;50.960;3.118;2022-09-01T08:13:26;6.15;;;4.53;;
18023;SDS011;9137;50.960;3.118;2022-09-01T08:15:53;9.15;;;4.70;;
18023;SDS011;9137;50.960;3.118;2022-09-01T08:18:20;9.30;;;5.32;;
18023;SDS011;9137;50.960;3.118;2022-09-01T08:20:47;5.95;;;5.05;;
18023;SDS011;9137;50.960;3.118;2022-09-01T08:23:16;6.28;;;5.00;;
18023;SDS011;9137;50.960;3.118;2022-09-01T08:25:45;8.52;;;4.38;;
18023;SDS011;9137;50.960;3.118;2022-09-01T08:28:14;7.30;;;4.50;;
18023;SDS011;9137;50.960;3.118;2022-09-01T08:30:41;4.97;;;4.25;;
18023;SDS011;9137;50.960;3.118;2022-09-01T08:33:09;8.87;;;5.03;;
18023;SDS011;9137;50.960;3.118;2022-09-01T08:35:40;8.50;;;5.00;;
18023;SDS011;9137;50.960;3.118;2022-09-01T08:38:08;8.35;;;5.10;;
18023;SDS011;9137;50.960;3.118;2022-09-01T08:40:35;9.85;;;5.10;;
18023;SDS011;9137;50.960;3.118;2022-09-01T08:43:06;6.13;;;4.50;;
18023;SDS011;9137;50.960;3.118;2022-09-01T08:45:49;7.40;;;5.35;;
18023;SDS011;9137;50.960;3.118;2022-09-01T08:48:20;6.00;;;5.05;;
18023;SDS011;9137;50.960;3.118;2022-09-01T08:50:52;6.28;;;4.97;;
18023;SDS011;9137;50.960;3.118;2022-09-01T08:53:25;8.82;;;5.43;;
18023;SDS011;9137;50.960;3.118;2022-09-01T08:55:55;6.93;;;4.90;;
18023;SDS011;9137;50.960;3.118;2022-09-01T08:58:24;5.72;;;4.93;;
18023;SDS011;9137;50.960;3.118;2022-09-01T09:00:55;7.13;;;5.13;;
18023;SDS011;9137;50.960;3.118;2022-09-01T09:03:30;6.20;;;5.03;;
18023;SDS011;9137;50.960;3.118;2022-09-01T09:06:09;7.05;;;5.45;;
18023;SDS011;9137;50.960;3.118;2022-09-01T09:08:47;7.88;;;4.82;;
18023;SDS011;9137;50.960;3.118;2022-09-01T09:14:10;6.50;;;5.10;;
18023;SDS011;9137;50.960;3.118;2022-09-01T09:16:45;7.90;;;5.13;;
18023;SDS011;9137;50.960;3.118;2022-09-01T09:19:15;6.93;;;5.00;;
18023;SDS011;9137;50.960;3.118;2022-09-01T09:21:52;6.55;;;5.82;;
18023;SDS011;9137;50.960;3.118;2022-09-01T09:24:22;6.65;;;5.40;;
18023;SDS011;9137;50.960;3.118;2022-09-01T09:26:53;6.22;;;4.75;;
18023;SDS011;9137;50.960;3.118;2022-09-01T09:29:22;8.40;;;5.60;;
18023;SDS011;9137;50.960;3.118;2022-09-01T09:32:00;8.05;;;5.15;;
18023;SDS011;9137;50.960;3.118;2022-09-01T09:34:31;6.63;;;5.00;;
18023;SDS011;9137;50.960;3.118;2022-09-01T09:37:00;8.13;;;5.27;;
18023;SDS011;9137;50.960;3.118;2022-09-01T09:39:44;5.90;;;4.90;;
18023;SDS011;9137;50.960;3.118;2022-09-01T09:42:26;5.82;;;5.25;;
18023;SDS011;9137;50.960;3.118;2022-09-01T09:44:53;7.53;;;4.90;;
18023;SDS011;9137;50.960;3.118;2022-09-01T09:47:35;7.22;;;5.10;;
18023;SDS011;9137;50.960;3.118;2022-09-01T09:50:14;6.97;;;5.75;;
18023;SDS011;9137;50.960;3.118;2022-09-01T09:52:50;6.43;;;4.87;;
18023;SDS011;9137;50.960;3.118;2022-09-01T09:55:23;5.22;;;4.80;;
18023;SDS011;9137;50.960;3.118;2022-09-01T09:57:53;6.38;;;4.93;;
18023;SDS011;9137;50.960;3.118;2022-09-01T10:00:23;6.85;;;5.50;;
18023;SDS011;9137;50.960;3.118;2022-09-01T10:02:54;8.20;;;5.07;;
18023;SDS011;9137;50.960;3.118;2022-09-01T10:05:24;6.35;;;5.40;;
18023;SDS011;9137;50.960;3.118;2022-09-01T10:07:54;5.85;;;4.20;;
18023;SDS011;9137;50.960;3.118;2022-09-01T10:10:25;6.10;;;4.77;;
18023;SDS011;9137;50.960;3.118;2022-09-01T10:13:03;6.00;;;4.93;;
18023;SDS011;9137;50.960;3.118;2022-09-01T10:15:33;5.20;;;4.03;;
18023;SDS011;9137;50.960;3.118;2022-09-01T10:18:03;5.18;;;4.68;;
18023;SDS011;9137;50.960;3.118;2022-09-01T10:20:36;5.15;;;4.55;;
18023;SDS011;9137;50.960;3.118;2022-09-01T10:23:04;6.77;;;5.00;;
18023;SDS011;9137;50.960;3.118;2022-09-01T10:25:33;5.30;;;4.80;;
18023;SDS011;9137;50.960;3.118;2022-09-01T10:28:02;6.72;;;4.28;;
18023;SDS011;9137;50.960;3.118;2022-09-01T10:30:35;5.80;;;4.43;;
18023;SDS011;9137;50.960;3.118;2022-09-01T10:33:08;6.20;;;4.43;;
18023;SDS011;9137;50.960;3.118;2022-09-01T10:35:36;6.70;;;4.38;;
18023;SDS011;9137;50.960;3.118;2022-09-01T10:38:08;6.47;;;4.20;;
18023;SDS011;9137;50.960;3.118;2022-09-01T10:40:38;5.63;;;4.00;;
18023;SDS011;9137;50.960;3.118;2022-09-01T10:43:23;5.10;;;4.13;;
18023;SDS011;9137;50.960;3.118;2022-09-01T10:45:52;3.67;;;3.35;;
18023;SDS011;9137;50.960;3.118;2022-09-01T10:48:29;5.37;;;3.67;;
18023;SDS011;9137;50.960;3.118;2022-09-01T10:54:04;4.78;;;4.00;;
18023;SDS011;9137;50.960;3.118;2022-09-01T10:56:36;5.45;;;3.72;;
18023;SDS011;9137;50.960;3.118;2022-09-01T10:59:09;4.97;;;3.47;;
18023;SDS011;9137;50.960;3.118;2022-09-01T11:07:42;4.18;;;2.88;;
18023;SDS011;9137;50.960;3.118;2022-09-01T11:10:17;3.45;;;2.83;;
18023;SDS011;9137;50.960;3.118;2022-09-01T11:13:08;4.00;;;2.50;;
18023;SDS011;9137;50.960;3.118;2022-09-01T11:15:49;4.78;;;2.53;;
18023;SDS011;9137;50.960;3.118;2022-09-01T11:18:16;2.42;;;2.25;;
18023;SDS011;9137;50.960;3.118;2022-09-01T11:20:54;5.88;;;2.80;;
18023;SDS011;9137;50.960;3.118;2022-09-01T11:23:39;2.83;;;2.40;;
18023;SDS011;9137;50.960;3.118;2022-09-01T11:32:11;3.50;;;2.60;;
18023;SDS011;9137;50.960;3.118;2022-09-01T11:34:40;4.82;;;2.80;;
18023;SDS011;9137;50.960;3.118;2022-09-01T11:37:14;3.05;;;2.45;;
18023;SDS011;9137;50.960;3.118;2022-09-01T11:39:45;3.10;;;2.83;;
18023;SDS011;9137;50.960;3.118;2022-09-01T11:42:17;3.33;;;2.90;;
18023;SDS011;9137;50.960;3.118;2022-09-01T11:44:48;5.57;;;2.70;;
18023;SDS011;9137;50.960;3.118;2022-09-01T11:47:19;3.30;;;2.90;;
18023;SDS011;9137;50.960;3.118;2022-09-01T11:49:50;3.50;;;2.40;;
18023;SDS011;9137;50.960;3.118;2022-09-01T11:52:21;4.68;;;3.00;;
18023;SDS011;9137;50.960;3.118;2022-09-01T11:54:50;2.93;;;2.70;;
18023;SDS011;9137;50.960;3.118;2022-09-01T11:57:20;3.17;;;2.90;;
18023;SDS011;9137;50.960;3.118;2022-09-01T11:59:48;5.55;;;2.67;;
18023;SDS011;9137;50.960;3.118;2022-09-01T12:02:16;2.80;;;2.47;;
18023;SDS011;9137;50.960;3.118;2022-09-01T12:04:45;3.43;;;2.40;;
18023;SDS011;9137;50.960;3.118;2022-09-01T12:07:12;3.42;;;2.97;;
18023;SDS011;9137;50.960;3.118;2022-09-01T12:09:52;3.25;;;2.60;;
18023;SDS011;9137;50.960;3.118;2022-09-01T12:12:27;3.28;;;2.45;;
18023;SDS011;9137;50.960;3.118;2022-09-01T12:15:00;4.20;;;2.50;;
18023;SDS011;9137;50.960;3.118;2022-09-01T12:17:29;2.70;;;2.50;;
18023;SDS011;9137;50.960;3.118;2022-09-01T12:19:58;3.88;;;2.78;;
18023;SDS011;9137;50.960;3.118;2022-09-01T12:22:48;2.72;;;2.53;;
18023;SDS011;9137;50.960;3.118;2022-09-01T12:25:17;3.47;;;2.50;;
18023;SDS011;9137;50.960;3.118;2022-09-01T12:27:46;5.00;;;3.20;;
18023;SDS011;9137;50.960;3.118;2022-09-01T12:30:14;9.40;;;3.10;;
18023;SDS011;9137;50.960;3.118;2022-09-01T12:32:41;3.22;;;2.70;;
18023;SDS011;9137;50.960;3.118;2022-09-01T12:35:13;4.07;;;2.45;;
18023;SDS011;9137;50.960;3.118;2022-09-01T12:37:43;3.60;;;2.50;;
18023;SDS011;9137;50.960;3.118;2022-09-01T12:40:21;3.00;;;2.40;;
18023;SDS011;9137;50.960;3.118;2022-09-01T12:42:51;4.15;;;2.65;;
18023;SDS011;9137;50.960;3.118;2022-09-01T12:48:22;6.43;;;2.72;;
18023;SDS011;9137;50.960;3.118;2022-09-01T12:50:50;4.03;;;3.03;;
18023;SDS011;9137;50.960;3.118;2022-09-01T12:53:25;3.00;;;2.70;;
18023;SDS011;9137;50.960;3.118;2022-09-01T12:56:01;4.53;;;2.80;;
18023;SDS011;9137;50.960;3.118;2022-09-01T12:58:47;4.25;;;2.60;;
18023;SDS011;9137;50.960;3.118;2022-09-01T13:01:26;2.88;;;2.67;;
18023;SDS011;9137;50.960;3.118;2022-09-01T13:04:06;2.80;;;2.60;;
18023;SDS011;9137;50.960;3.118;2022-09-01T13:06:48;6.30;;;2.97;;
18023;SDS011;9137;50.960;3.118;2022-09-01T13:09:16;3.03;;;2.72;;
18023;SDS011;9137;50.960;3.118;2022-09-01T13:11:44;4.13;;;2.97;;
18023;SDS011;9137;50.960;3.118;2022-09-01T13:14:12;14.05;;;3.80;;
18023;SDS011;9137;50.960;3.118;2022-09-01T13:16:40;3.40;;;2.97;;
18023;SDS011;9137;50.960;3.118;2022-09-01T13:19:07;3.15;;;2.72;;
18023;SDS011;9137;50.960;3.118;2022-09-01T13:21:35;6.80;;;3.00;;
18023;SDS011;9137;50.960;3.118;2022-09-01T13:24:03;3.55;;;3.22;;
18023;SDS011;9137;50.960;3.118;2022-09-01T13:26:31;2.85;;;2.65;;
18023;SDS011;9137;50.960;3.118;2022-09-01T13:28:59;5.05;;;3.25;;
18023;SDS011;9137;50.960;3.118;2022-09-01T13:31:26;5.60;;;3.08;;
18023;SDS011;9137;50.960;3.118;2022-09-01T13:33:57;2.60;;;2.40;;
18023;SDS011;9137;50.960;3.118;2022-09-01T13:36:24;4.25;;;2.90;;
18023;SDS011;9137;50.960;3.118;2022-09-01T13:38:51;4.22;;;2.75;;
18023;SDS011;9137;50.960;3.118;2022-09-01T13:41:20;2.80;;;2.60;;
18023;SDS011;9137;50.960;3.118;2022-09-01T13:43:47;3.10;;;2.60;;
18023;SDS011;9137;50.960;3.118;2022-09-01T13:46:16;4.03;;;2.83;;
18023;SDS011;9137;50.960;3.118;2022-09-01T13:48:43;4.13;;;2.85;;
18023;SDS011;9137;50.960;3.118;2022-09-01T13:51:10;3.40;;;2.38;;
18023;SDS011;9137;50.960;3.118;2022-09-01T13:53:37;3.47;;;2.88;;
18023;SDS011;9137;50.960;3.118;2022-09-01T13:56:04;3.07;;;2.80;;
18023;SDS011;9137;50.960;3.118;2022-09-01T13:58:31;3.53;;;2.58;;
18023;SDS011;9137;50.960;3.118;2022-09-01T14:00:58;2.95;;;2.75;;
18023;SDS011;9137;50.960;3.118;2022-09-01T14:03:26;5.93;;;3.33;;
18023;SDS011;9137;50.960;3.118;2022-09-01T14:05:54;4.90;;;2.72;;
18023;SDS011;9137;50.960;3.118;2022-09-01T14:08:23;3.10;;;2.60;;
18023;SDS011;9137;50.960;3.118;2022-09-01T14:10:50;3.78;;;2.60;;
18023;SDS011;9137;50.960;3.118;2022-09-01T14:13:19;3.05;;;2.63;;
18023;SDS011;9137;50.960;3.118;2022-09-01T14:15:47;4.03;;;2.35;;
18023;SDS011;9137;50.960;3.118;2022-09-01T14:18:17;3.03;;;2.40;;
18023;SDS011;9137;50.960;3.118;2022-09-01T14:20:49;2.57;;;2.37;;
18023;SDS011;9137;50.960;3.118;2022-09-01T14:23:17;4.53;;;2.60;;
18023;SDS011;9137;50.960;3.118;2022-09-01T14:25:46;5.05;;;2.90;;
18023;SDS011;9137;50.960;3.118;2022-09-01T14:28:14;4.53;;;2.25;;
18023;SDS011;9137;50.960;3.118;2022-09-01T14:30:41;7.82;;;2.40;;
18023;SDS011;9137;50.960;3.118;2022-09-01T14:33:08;6.30;;;2.30;;
18023;SDS011;9137;50.960;3.118;2022-09-01T14:35:37;2.63;;;2.38;;
18023;SDS011;9137;50.960;3.118;2022-09-01T14:38:08;4.65;;;2.17;;
18023;SDS011;9137;50.960;3.118;2022-09-01T14:40:39;3.03;;;2.15;;
18023;SDS011;9137;50.960;3.118;2022-09-01T14:43:09;2.50;;;2.20;;
18023;SDS011;9137;50.960;3.118;2022-09-01T14:45:38;5.03;;;2.42;;
18023;SDS011;9137;50.960;3.118;2022-09-01T14:48:08;2.90;;;2.20;;
18023;SDS011;9137;50.960;3.118;2022-09-01T14:50:38;2.58;;;2.20;;
18023;SDS011;9137;50.960;3.118;2022-09-01T14:53:08;2.08;;;1.95;;
18023;SDS011;9137;50.960;3.118;2022-09-01T14:55:35;2.92;;;2.10;;
18023;SDS011;9137;50.960;3.118;2022-09-01T14:58:02;3.57;;;2.00;;
18023;SDS011;9137;50.960;3.118;2022-09-01T15:00:32;1.92;;;1.80;;
18023;SDS011;9137;50.960;3.118;2022-09-01T15:03:01;2.08;;;1.88;;
18023;SDS011;9137;50.960;3.118;2022-09-01T15:05:28;2.25;;;2.03;;
18023;SDS011;9137;50.960;3.118;2022-09-01T15:07:55;3.60;;;2.05;;
18023;SDS011;9137;50.960;3.118;2022-09-01T15:10:24;2.60;;;2.00;;
18023;SDS011;9137;50.960;3.118;2022-09-01T15:12:52;2.30;;;1.95;;
18023;SDS011;9137;50.960;3.118;2022-09-01T15:15:20;2.67;;;1.93;;
18023;SDS011;9137;50.960;3.118;2022-09-01T15:17:48;1.98;;;1.73;;
18023;SDS011;9137;50.960;3.118;2022-09-01T15:20:15;2.60;;;1.90;;
18023;SDS011;9137;50.960;3.118;2022-09-01T15:22:59;3.55;;;1.88;;
18023;SDS011;9137;50.960;3.118;2022-09-01T15:25:28;2.33;;;2.13;;
18023;SDS011;9137;50.960;3.118;2022-09-01T15:27:55;3.60;;;1.73;;
18023;SDS011;9137;50.960;3.118;2022-09-01T15:30:22;1.83;;;1.73;;
18023;SDS011;9137;50.960;3.118;2022-09-01T15:32:50;2.70;;;1.90;;
18023;SDS011;9137;50.960;3.118;2022-09-01T15:35:20;4.60;;;2.10;;
18023;SDS011;9137;50.960;3.118;2022-09-01T15:37:49;2.38;;;1.90;;
18023;SDS011;9137;50.960;3.118;2022-09-01T15:40:16;3.93;;;2.50;;